aviador You're here:

ZWWW Decoded Metar

URUMQI in CHINA
Report Time2017-10-17 20:00:00
UTC Time2017-10-17 20:25:46
Flight Rules vfr VFR
WindVRB at 2 kt
Visibility9999 m
Phenomena:N/A
Clouds:N/A
Expected CloudBase > 5,600 ft AGL from Temp-Dew spread
CeilingNone
Temp12°C (ISA +1)
Dew Point-2°C (38% RH)
AAT9.0°C
QNH1014 hPa
Density Alt2,339 ft
Elevation2,146 ft
Report Wrong Elevation
Raw Report
ZWWW 172000Z VRB01MPS CAVOK 12/M02 Q1014 NOSIG=

Extra information for ZWWW:More info

Metar Taf Metar & Taf Last 4 Metars F.Rules Stats Wind Profile Meteogram Temp Stats Airport Information Weather charts Add Link Nearby VenuesMetar ALERT Operation Metar Decoded Social comments